createdAt,value
2024-05-09T00:00:22.074Z,3.70
2024-05-09T00:02:53.278Z,4.10
2024-05-09T00:05:20.129Z,4.20
2024-05-09T00:07:46.898Z,4.20
2024-05-09T00:10:22.384Z,4.10
2024-05-09T00:12:56.068Z,4.03
2024-05-09T00:15:22.874Z,4.30
2024-05-09T00:17:49.801Z,3.83
2024-05-09T00:20:23.917Z,4.10
2024-05-09T00:22:54.656Z,3.55
2024-05-09T00:25:21.434Z,3.60
2024-05-09T00:27:48.057Z,4.40
2024-05-09T00:30:21.557Z,3.85
2024-05-09T00:32:55.440Z,3.88
2024-05-09T00:35:22.370Z,4.20
2024-05-09T00:37:49.223Z,4.13
2024-05-09T00:40:22.928Z,3.90
2024-05-09T00:42:57.646Z,4.45
2024-05-09T00:45:24.218Z,4.05
2024-05-09T00:47:51.404Z,3.85
2024-05-09T00:50:23.040Z,3.65
2024-05-09T00:52:56.630Z,4.10
2024-05-09T00:55:24.052Z,3.63
2024-05-09T00:57:51.125Z,3.70
2024-05-09T01:00:25.990Z,4.40
2024-05-09T01:02:57.604Z,3.95
2024-05-09T01:05:24.435Z,3.95
2024-05-09T01:07:51.355Z,3.75
2024-05-09T01:10:24.302Z,4.05
2024-05-09T01:13:18.673Z,4.20
2024-05-09T01:16:05.723Z,4.05
2024-05-09T01:18:52.635Z,4.05
2024-05-09T01:21:41.416Z,4.22
2024-05-09T01:24:28.025Z,3.92
2024-05-09T01:27:14.649Z,3.40
2024-05-09T01:29:41.359Z,3.95
2024-05-09T01:32:08.127Z,3.83
2024-05-09T01:34:34.871Z,3.90
2024-05-09T01:37:01.550Z,3.42
2024-05-09T01:39:28.147Z,3.42
2024-05-09T01:41:54.888Z,3.33
2024-05-09T01:44:21.602Z,3.70
2024-05-09T01:46:48.396Z,3.75
2024-05-09T01:49:15.466Z,4.07
2024-05-09T01:51:42.175Z,3.63
2024-05-09T01:54:08.950Z,3.45
2024-05-09T01:56:35.771Z,2.95
2024-05-09T01:59:02.568Z,3.40
2024-05-09T02:01:30.783Z,3.08
2024-05-09T02:04:17.804Z,3.35
2024-05-09T02:06:44.531Z,3.65
2024-05-09T02:09:11.388Z,3.70
2024-05-09T02:11:44.064Z,3.80
2024-05-09T02:14:11.077Z,4.22
2024-05-09T02:16:37.907Z,4.00
2024-05-09T02:19:05.038Z,3.90
2024-05-09T02:21:34.214Z,3.90
2024-05-09T02:24:00.985Z,3.15
2024-05-09T02:26:27.852Z,3.72
2024-05-09T02:28:54.637Z,4.65
2024-05-09T02:31:21.369Z,4.20
2024-05-09T02:33:48.267Z,4.68
2024-05-09T02:36:15.188Z,4.15
2024-05-09T02:38:42.045Z,4.00
2024-05-09T02:41:09.325Z,4.03
2024-05-09T02:43:36.084Z,3.97
2024-05-09T02:46:02.682Z,4.10
2024-05-09T02:48:29.352Z,4.03
2024-05-09T02:50:56.142Z,4.50
2024-05-09T02:53:22.842Z,3.85
2024-05-09T02:55:49.647Z,4.82
2024-05-09T02:58:16.566Z,3.80
2024-05-09T03:00:43.439Z,4.25
2024-05-09T03:03:13.495Z,3.80
2024-05-09T03:05:45.990Z,4.20
2024-05-09T03:08:13.409Z,4.70
2024-05-09T03:10:40.204Z,4.10
2024-05-09T03:13:15.491Z,4.55
2024-05-09T03:15:43.930Z,4.68
2024-05-09T03:18:11.537Z,4.80
2024-05-09T03:20:39.151Z,5.00
2024-05-09T03:23:08.905Z,5.15
2024-05-09T03:25:36.896Z,5.13
2024-05-09T03:28:03.808Z,5.40
2024-05-09T03:30:39.175Z,4.95
2024-05-09T03:33:19.789Z,4.95
2024-05-09T03:35:48.221Z,4.32
2024-05-09T03:38:15.410Z,5.35
2024-05-09T03:40:50.215Z,4.88
2024-05-09T03:43:18.186Z,4.63
2024-05-09T03:45:45.669Z,4.55
2024-05-09T03:48:13.245Z,4.85
2024-05-09T03:50:40.925Z,4.45
2024-05-09T03:53:11.090Z,4.10
2024-05-09T03:55:37.894Z,4.50
2024-05-09T03:58:04.926Z,4.10
2024-05-09T04:00:37.633Z,4.70
2024-05-09T04:03:09.476Z,4.30
2024-05-09T04:05:43.901Z,4.45
2024-05-09T04:08:12.795Z,4.43
2024-05-09T04:10:40.340Z,4.13
2024-05-09T04:13:07.127Z,3.88
2024-05-09T04:15:34.201Z,4.63
2024-05-09T04:18:01.825Z,4.25
2024-05-09T04:20:37.146Z,4.20
2024-05-09T04:23:08.455Z,4.13
2024-05-09T04:25:36.664Z,4.45
2024-05-09T04:28:03.587Z,3.78
2024-05-09T04:30:36.991Z,3.85
2024-05-09T04:33:09.267Z,4.32
2024-05-09T04:35:38.329Z,4.07
2024-05-09T04:38:05.526Z,4.88
2024-05-09T04:40:35.593Z,4.20
2024-05-09T04:43:07.612Z,4.65
2024-05-09T04:45:34.973Z,4.82
2024-05-09T04:48:02.436Z,4.93
2024-05-09T04:50:36.108Z,4.95
2024-05-09T04:53:10.483Z,5.15
2024-05-09T04:55:38.350Z,4.93
2024-05-09T04:58:08.930Z,4.90
2024-05-09T05:03:08.535Z,5.05
2024-05-09T05:05:40.982Z,5.85
2024-05-09T05:08:12.298Z,5.03
2024-05-09T05:10:39.285Z,5.18
2024-05-09T05:13:23.909Z,4.80
2024-05-09T05:15:58.469Z,4.50
2024-05-09T05:18:29.031Z,4.72
2024-05-09T05:23:24.428Z,4.45
2024-05-09T05:25:54.268Z,4.60
2024-05-09T05:28:21.950Z,4.65
2024-05-09T05:30:49.038Z,4.60
2024-05-09T05:33:18.141Z,5.25
2024-05-09T05:35:45.246Z,4.65
2024-05-09T05:38:11.981Z,4.28
2024-05-09T05:40:39.904Z,4.65
2024-05-09T05:43:09.744Z,4.60
2024-05-09T05:45:36.844Z,4.32
2024-05-09T05:48:05.538Z,4.40
2024-05-09T05:50:36.504Z,4.38
2024-05-09T05:53:09.958Z,3.97
2024-05-09T05:55:40.899Z,4.45
2024-05-09T06:00:42.584Z,4.78
2024-05-09T06:03:11.675Z,4.97
2024-05-09T06:05:40.502Z,4.80
2024-05-09T06:08:08.483Z,4.13
2024-05-09T06:10:39.174Z,4.65
2024-05-09T06:13:10.664Z,3.70
2024-05-09T06:15:37.551Z,4.30
2024-05-09T06:18:08.752Z,4.22
2024-05-09T06:20:38.023Z,4.13
2024-05-09T06:23:10.118Z,4.10
2024-05-09T06:25:38.613Z,4.03
2024-05-09T06:28:06.049Z,3.90
2024-05-09T06:33:02.908Z,4.65
2024-05-09T06:35:29.864Z,5.97
2024-05-09T06:37:56.848Z,6.28
2024-05-09T06:40:29.236Z,5.88
2024-05-09T06:43:01.068Z,4.78
2024-05-09T06:45:27.678Z,4.45
2024-05-09T06:47:54.650Z,3.80
2024-05-09T06:50:24.428Z,3.30
2024-05-09T06:52:55.137Z,3.22
2024-05-09T06:55:22.037Z,3.63
2024-05-09T06:57:48.770Z,3.25
2024-05-09T07:00:22.864Z,3.10
2024-05-09T07:02:59.068Z,3.20
2024-05-09T07:05:27.017Z,3.10
2024-05-09T07:07:53.847Z,2.70
2024-05-09T07:10:28.642Z,2.85
2024-05-09T07:12:59.558Z,2.83
2024-05-09T07:15:27.284Z,2.40
2024-05-09T07:17:54.205Z,2.65
2024-05-09T07:20:31.679Z,2.60
2024-05-09T07:25:29.345Z,2.80
2024-05-09T07:27:56.680Z,2.20
2024-05-09T07:30:30.250Z,2.60
2024-05-09T07:33:00.520Z,2.30
2024-05-09T07:35:27.898Z,2.80
2024-05-09T07:37:54.845Z,2.25
2024-05-09T07:40:29.060Z,2.35
2024-05-09T07:43:07.338Z,2.42
2024-05-09T07:52:32.421Z,2.60
2024-05-09T07:55:55.872Z,2.30
2024-05-09T07:58:27.507Z,2.72
2024-05-09T08:00:54.685Z,2.30
2024-05-09T08:03:22.789Z,2.25
2024-05-09T08:05:49.797Z,2.20
2024-05-09T08:08:16.935Z,2.22
2024-05-09T08:10:43.786Z,2.47
2024-05-09T08:13:10.724Z,2.58
2024-05-09T08:15:38.069Z,1.98
2024-05-09T08:18:08.946Z,2.00
2024-05-09T08:20:38.012Z,2.50
2024-05-09T08:23:04.887Z,1.73
2024-05-09T08:25:31.714Z,2.30
2024-05-09T08:27:58.414Z,2.03
2024-05-09T08:30:32.569Z,2.10
2024-05-09T08:33:07.591Z,1.90
2024-05-09T08:35:35.409Z,2.25
2024-05-09T08:38:03.721Z,1.80
2024-05-09T08:40:35.734Z,2.75
2024-05-09T08:43:09.846Z,1.73
2024-05-09T08:45:42.123Z,1.90
2024-05-09T08:48:12.085Z,1.77
2024-05-09T08:50:40.961Z,2.08
2024-05-09T08:53:08.649Z,1.85
2024-05-09T08:55:40.225Z,1.77
2024-05-09T08:58:12.628Z,1.88
2024-05-09T09:03:11.752Z,1.60
2024-05-09T09:05:40.027Z,1.52
2024-05-09T09:08:08.607Z,2.22
2024-05-09T09:10:36.457Z,2.20
2024-05-09T09:13:09.632Z,1.50
2024-05-09T09:15:49.856Z,1.50
2024-05-09T09:18:17.746Z,1.75
2024-05-09T09:20:45.622Z,2.00
2024-05-09T09:23:12.558Z,1.70
2024-05-09T09:25:40.719Z,1.85
2024-05-09T09:28:08.133Z,1.65
2024-05-09T09:30:38.888Z,2.00
2024-05-09T09:33:06.681Z,2.00
2024-05-09T09:35:36.028Z,2.28
2024-05-09T09:38:04.646Z,1.52
2024-05-09T09:40:45.096Z,1.75
2024-05-09T09:43:21.067Z,1.85
2024-05-09T09:45:53.596Z,1.88
2024-05-09T09:48:22.205Z,1.60
2024-05-09T09:50:51.849Z,1.58
2024-05-09T09:53:19.658Z,1.60
2024-05-09T09:55:47.291Z,1.58
2024-05-09T09:58:18.272Z,2.25
2024-05-09T10:00:45.494Z,1.40
2024-05-09T10:03:12.476Z,1.50
2024-05-09T10:05:42.175Z,1.73
2024-05-09T10:08:12.216Z,1.92
2024-05-09T10:10:39.791Z,1.40
2024-05-09T10:13:07.885Z,1.83
2024-05-09T10:15:48.566Z,1.30
2024-05-09T10:20:43.937Z,1.70
2024-05-09T10:23:27.849Z,1.83
2024-05-09T10:26:03.232Z,1.58
2024-05-09T10:28:37.927Z,1.65
2024-05-09T10:31:13.398Z,1.48
2024-05-09T10:33:47.685Z,1.52
2024-05-09T10:36:22.260Z,1.90
2024-05-09T10:38:50.146Z,2.03
2024-05-09T10:41:17.928Z,1.60
2024-05-09T10:43:44.725Z,1.70
2024-05-09T10:46:12.106Z,1.42
2024-05-09T10:48:41.321Z,1.80
2024-05-09T10:51:09.018Z,1.90
2024-05-09T10:53:46.727Z,1.60
2024-05-09T10:56:14.646Z,1.92
2024-05-09T10:58:42.479Z,1.45
2024-05-09T11:01:10.260Z,1.70
2024-05-09T11:03:38.141Z,1.50
2024-05-09T11:06:06.330Z,1.63
2024-05-09T11:08:34.085Z,1.70
2024-05-09T11:11:02.952Z,1.70
2024-05-09T11:13:31.539Z,1.42
2024-05-09T11:16:02.319Z,2.20
2024-05-09T11:18:35.017Z,1.45
2024-05-09T11:21:12.406Z,1.58
2024-05-09T11:23:39.595Z,1.63
2024-05-09T11:26:07.083Z,1.25
2024-05-09T11:28:33.811Z,1.40
2024-05-09T11:31:09.195Z,1.45
2024-05-09T11:33:38.611Z,1.40
2024-05-09T11:36:06.610Z,1.60
2024-05-09T11:38:33.527Z,1.90
2024-05-09T11:41:02.389Z,1.45
2024-05-09T11:43:29.111Z,1.48
2024-05-09T11:45:59.936Z,1.50
2024-05-09T11:48:27.047Z,2.88
2024-05-09T11:50:56.968Z,1.52
2024-05-09T11:53:23.986Z,1.60
2024-05-09T11:55:50.753Z,1.70
2024-05-09T11:58:18.890Z,1.70
2024-05-09T12:00:46.480Z,1.30
2024-05-09T12:03:13.563Z,1.30
2024-05-09T12:05:40.585Z,1.23
2024-05-09T12:08:07.674Z,1.35
2024-05-09T12:10:36.808Z,1.83
2024-05-09T12:13:06.098Z,1.73
2024-05-09T12:18:04.983Z,1.30
2024-05-09T12:20:37.497Z,1.45
2024-05-09T12:23:07.527Z,1.23
2024-05-09T12:25:35.764Z,1.30
2024-05-09T12:28:02.728Z,1.30
2024-05-09T12:30:36.356Z,1.10
2024-05-09T12:33:08.292Z,1.38
2024-05-09T12:35:35.280Z,1.40
2024-05-09T12:38:02.183Z,1.17
2024-05-09T12:40:35.727Z,1.40
2024-05-09T12:43:06.940Z,1.40
2024-05-09T12:45:34.009Z,1.60
2024-05-09T12:48:01.067Z,1.70
2024-05-09T12:50:32.936Z,1.30
2024-05-09T12:53:02.365Z,1.25
2024-05-09T12:55:34.242Z,1.45
2024-05-09T12:58:08.685Z,1.42
2024-05-09T13:00:36.204Z,1.30
2024-05-09T13:03:03.174Z,1.40
2024-05-09T13:05:30.401Z,1.30
2024-05-09T13:07:58.248Z,1.50
2024-05-09T13:10:31.788Z,1.65
2024-05-09T13:13:01.140Z,1.33
2024-05-09T13:15:30.326Z,1.50
2024-05-09T13:18:00.562Z,1.48
2024-05-09T13:20:33.668Z,1.38
2024-05-09T13:23:03.626Z,1.40
2024-05-09T13:25:30.537Z,1.30
2024-05-09T13:27:57.735Z,1.27
2024-05-09T13:30:30.248Z,1.58
2024-05-09T13:33:06.573Z,1.40
2024-05-09T13:35:36.883Z,1.73
2024-05-09T13:38:04.474Z,1.10
2024-05-09T13:40:34.766Z,1.48
2024-05-09T13:43:04.804Z,1.60
2024-05-09T13:45:32.076Z,1.17
2024-05-09T13:47:59.252Z,1.20
2024-05-09T13:50:33.367Z,1.10
2024-05-09T13:53:04.618Z,1.13
2024-05-09T13:55:31.729Z,1.30
2024-05-09T13:57:58.637Z,1.35
2024-05-09T14:02:55.194Z,1.20
2024-05-09T14:05:22.135Z,1.20
2024-05-09T14:07:49.112Z,1.20
2024-05-09T14:10:23.181Z,1.38
2024-05-09T14:12:55.743Z,1.10
2024-05-09T14:15:22.853Z,1.25
2024-05-09T14:17:49.698Z,1.40
2024-05-09T14:20:23.718Z,1.45
2024-05-09T14:22:57.825Z,1.38
2024-05-09T14:25:26.758Z,1.02
2024-05-09T14:27:54.120Z,1.58
2024-05-09T14:30:30.180Z,1.65
2024-05-09T14:33:02.784Z,1.00
2024-05-09T14:35:29.559Z,1.33
2024-05-09T14:37:56.436Z,1.00
2024-05-09T14:40:35.915Z,1.25
2024-05-09T14:43:08.235Z,1.20
2024-05-09T14:45:35.108Z,1.25
2024-05-09T14:48:02.867Z,1.08
2024-05-09T14:50:35.857Z,1.40
2024-05-09T14:53:07.508Z,1.20
2024-05-09T14:55:37.448Z,1.02
2024-05-09T14:58:09.247Z,1.25
2024-05-09T15:00:45.999Z,0.93
2024-05-09T15:03:17.008Z,1.10
2024-05-09T15:05:45.327Z,1.13
2024-05-09T15:08:12.365Z,1.25
2024-05-09T15:10:39.224Z,1.10
2024-05-09T15:13:08.112Z,1.30
2024-05-09T15:15:37.137Z,2.40
2024-05-09T15:18:05.143Z,2.40
2024-05-09T15:20:35.997Z,1.83
2024-05-09T15:23:06.638Z,1.50
2024-05-09T15:25:35.349Z,1.30
2024-05-09T15:28:02.534Z,1.85
2024-05-09T15:30:32.306Z,1.58
2024-05-09T15:33:03.188Z,1.20
2024-05-09T15:35:30.133Z,1.38
2024-05-09T15:37:56.828Z,1.20
2024-05-09T15:40:34.440Z,1.73
2024-05-09T15:43:06.706Z,1.20
2024-05-09T15:45:34.089Z,1.48
2024-05-09T15:48:02.588Z,1.50
2024-05-09T15:50:36.986Z,1.20
2024-05-09T15:53:08.690Z,1.30
2024-05-09T15:55:36.284Z,1.10
2024-05-09T15:58:04.268Z,1.30
2024-05-09T16:00:38.925Z,1.50
2024-05-09T16:03:13.350Z,1.95
2024-05-09T16:05:42.981Z,1.60
2024-05-09T16:08:11.498Z,1.40
2024-05-09T16:10:44.487Z,1.60
2024-05-09T16:13:12.742Z,1.30
2024-05-09T16:15:40.090Z,1.50
2024-05-09T16:18:07.488Z,1.65
2024-05-09T16:20:39.635Z,2.33
2024-05-09T16:23:09.034Z,2.28
2024-05-09T16:25:36.277Z,3.10
2024-05-09T16:28:07.412Z,1.77
2024-05-09T16:30:37.236Z,3.92
2024-05-09T16:33:05.331Z,1.95
2024-05-09T16:35:34.614Z,1.98
2024-05-09T16:38:02.930Z,3.33
2024-05-09T16:40:37.364Z,2.80
2024-05-09T16:43:07.872Z,11.00
2024-05-09T16:45:35.360Z,4.97
2024-05-09T16:48:02.863Z,17.63
2024-05-09T16:50:33.798Z,2.60
2024-05-09T16:53:03.234Z,1.40
2024-05-09T16:55:30.318Z,1.52
2024-05-09T16:57:58.095Z,1.52
2024-05-09T17:00:35.860Z,1.60
2024-05-09T17:03:09.746Z,1.33
2024-05-09T17:05:37.346Z,1.27
2024-05-09T17:08:05.008Z,1.40
2024-05-09T17:10:34.162Z,1.45
2024-05-09T17:13:03.836Z,1.63
2024-05-09T17:15:32.271Z,1.25
2024-05-09T17:17:59.232Z,1.40
2024-05-09T17:20:32.435Z,1.52
2024-05-09T17:23:03.252Z,1.33
2024-05-09T17:25:30.094Z,1.50
2024-05-09T17:27:57.324Z,1.40
2024-05-09T17:30:29.166Z,1.80
2024-05-09T17:33:03.305Z,1.60
2024-05-09T17:35:30.058Z,1.45
2024-05-09T17:37:58.028Z,1.70
2024-05-09T17:40:31.131Z,1.40
2024-05-09T17:43:01.730Z,1.70
2024-05-09T17:45:28.704Z,1.35
2024-05-09T17:47:55.772Z,1.40
2024-05-09T17:50:30.311Z,1.65
2024-05-09T17:53:01.755Z,1.52
2024-05-09T17:55:28.834Z,1.50
2024-05-09T17:57:55.937Z,1.50
2024-05-09T18:00:33.150Z,1.17
2024-05-09T18:03:06.398Z,1.20
2024-05-09T18:05:38.165Z,1.63
2024-05-09T18:08:08.408Z,1.52
2024-05-09T18:10:38.598Z,1.95
2024-05-09T18:13:11.428Z,1.77
2024-05-09T18:15:39.030Z,1.73
2024-05-09T18:18:06.611Z,2.05
2024-05-09T18:20:41.835Z,1.60
2024-05-09T18:23:17.178Z,1.90
2024-05-09T18:25:45.796Z,2.15
2024-05-09T18:28:13.427Z,1.90
2024-05-09T18:30:40.981Z,1.70
2024-05-09T18:33:10.655Z,1.42
2024-05-09T18:38:05.314Z,1.40
2024-05-09T18:40:35.989Z,1.90
2024-05-09T18:43:06.882Z,1.80
2024-05-09T18:45:36.109Z,1.70
2024-05-09T18:48:04.891Z,2.17
2024-05-09T18:50:36.170Z,1.88
2024-05-09T18:53:06.473Z,1.88
2024-05-09T18:55:33.344Z,2.17
2024-05-09T18:58:00.104Z,2.35
2024-05-09T19:00:34.133Z,2.42
2024-05-09T19:03:08.099Z,1.90
2024-05-09T19:05:36.434Z,1.85
2024-05-09T19:08:03.719Z,1.80
2024-05-09T19:10:34.449Z,1.98
2024-05-09T19:13:06.810Z,1.80
2024-05-09T19:15:38.380Z,1.77
2024-05-09T19:18:06.307Z,1.95
2024-05-09T19:20:35.278Z,1.85
2024-05-09T19:23:03.608Z,1.98
2024-05-09T19:25:30.581Z,1.80
2024-05-09T19:27:57.433Z,2.33
2024-05-09T19:30:32.986Z,1.67
2024-05-09T19:33:06.047Z,1.75
2024-05-09T19:35:33.083Z,1.90
2024-05-09T19:38:00.014Z,1.90
2024-05-09T19:40:31.503Z,1.80
2024-05-09T19:43:01.725Z,2.38
2024-05-09T19:45:29.130Z,1.70
2024-05-09T19:47:56.354Z,2.70
2024-05-09T19:50:32.128Z,2.10
2024-05-09T19:53:06.900Z,1.75
2024-05-09T19:55:35.020Z,1.90
2024-05-09T19:58:05.378Z,1.88
2024-05-09T20:00:40.265Z,2.25
2024-05-09T20:03:09.868Z,1.80
2024-05-09T20:05:37.697Z,1.80
2024-05-09T20:08:05.747Z,1.80
2024-05-09T20:10:35.009Z,1.70
2024-05-09T20:13:04.479Z,1.92
2024-05-09T20:15:34.087Z,2.08
2024-05-09T20:18:01.336Z,1.75
2024-05-09T20:20:36.108Z,2.20
2024-05-09T20:23:06.739Z,1.63
2024-05-09T20:25:33.391Z,2.45
2024-05-09T20:28:00.145Z,2.40
2024-05-09T20:30:32.091Z,2.38
2024-05-09T20:33:03.037Z,2.20
2024-05-09T20:37:59.500Z,1.90
2024-05-09T20:40:32.513Z,1.90
2024-05-09T20:43:02.763Z,2.00
2024-05-09T20:45:29.537Z,2.20
2024-05-09T20:47:56.439Z,2.28
2024-05-09T20:50:32.044Z,2.42
2024-05-09T20:53:05.430Z,2.03
2024-05-09T20:55:32.328Z,2.30
2024-05-09T20:57:59.268Z,2.35
2024-05-09T21:00:34.864Z,2.25
2024-05-09T21:03:07.236Z,2.22
2024-05-09T21:05:35.060Z,2.40
2024-05-09T21:08:02.603Z,2.03
2024-05-09T21:10:32.929Z,2.20
2024-05-09T21:13:01.871Z,1.92
2024-05-09T21:15:29.423Z,2.28
2024-05-09T21:17:56.123Z,2.05
2024-05-09T21:20:28.894Z,2.00
2024-05-09T21:22:58.634Z,2.58
2024-05-09T21:25:25.446Z,2.10
2024-05-09T21:27:52.565Z,2.53
2024-05-09T21:30:31.229Z,2.90
2024-05-09T21:33:06.022Z,1.80
2024-05-09T21:35:32.801Z,2.53
2024-05-09T21:37:59.757Z,2.45
2024-05-09T21:40:33.492Z,2.72
2024-05-09T21:43:02.321Z,2.13
2024-05-09T21:45:29.395Z,2.50
2024-05-09T21:47:56.187Z,2.28
2024-05-09T21:50:28.761Z,2.13
2024-05-09T21:55:30.604Z,2.30
2024-05-09T21:57:57.519Z,2.30
2024-05-09T22:00:32.268Z,2.75
2024-05-09T22:03:03.774Z,2.85
2024-05-09T22:05:30.900Z,2.50
2024-05-09T22:07:57.752Z,2.47
2024-05-09T22:10:30.997Z,2.22
2024-05-09T22:13:01.767Z,2.20
2024-05-09T22:15:28.687Z,2.03
2024-05-09T22:17:57.442Z,2.25
2024-05-09T22:20:33.877Z,2.50
2024-05-09T22:23:04.600Z,1.92
2024-05-09T22:25:32.335Z,2.40
2024-05-09T22:28:00.677Z,2.00
2024-05-09T22:30:34.955Z,2.63
2024-05-09T22:33:10.668Z,2.35
2024-05-09T22:35:40.895Z,2.30
2024-05-09T22:38:08.160Z,2.70
2024-05-09T22:40:45.434Z,2.00
2024-05-09T22:45:55.544Z,2.38
2024-05-09T22:48:24.256Z,2.20
2024-05-09T22:50:51.762Z,2.63
2024-05-09T22:53:18.517Z,2.20
2024-05-09T22:55:45.280Z,2.45
2024-05-09T22:58:12.014Z,2.60
2024-05-09T23:00:38.978Z,2.22
2024-05-09T23:03:06.076Z,2.35
2024-05-09T23:05:33.170Z,2.20
2024-05-09T23:08:01.492Z,2.47
2024-05-09T23:10:35.442Z,2.05
2024-05-09T23:13:04.569Z,2.60
2024-05-09T23:15:31.805Z,2.00
2024-05-09T23:17:58.976Z,2.28
2024-05-09T23:20:35.861Z,2.53
2024-05-09T23:23:06.859Z,2.33
2024-05-09T23:25:34.055Z,2.33
2024-05-09T23:28:00.878Z,2.65
2024-05-09T23:30:36.065Z,2.08
2024-05-09T23:33:06.974Z,2.33
2024-05-09T23:35:33.732Z,2.72
2024-05-09T23:38:00.476Z,2.40
2024-05-09T23:40:37.321Z,2.28
2024-05-09T23:43:11.603Z,2.97
2024-05-09T23:45:39.161Z,2.15
2024-05-09T23:48:06.820Z,2.17
2024-05-09T23:50:36.778Z,2.42
2024-05-09T23:53:07.097Z,2.15
2024-05-09T23:55:34.982Z,2.17
2024-05-09T23:58:01.900Z,2.30
